Time;durP1;ratioP1;P1;durP2;ratioP2;P2;SDS_P1;SDS_P2;PMS_P1;PMS_P2;Temp;Humidity;BMP_temperature;BMP_pressure;BME280_temperature;BME280_humidity;BME280_pressure;Samples;Min_cycle;Max_cycle;Signal;HPM_P1;HPM_P2
2021/01/07 00:01:10;;;;;;;0.93;0.60;;;15.30;57.90;;;;;;4975717;28;20034;-52
2021/01/07 00:03:39;;;;;;;1.40;1.02;;;;;;;;;;4990852;28;20030;-53
2021/01/07 00:06:07;;;;;;;1.27;0.80;;;15.20;57.40;;;;;;4958284;28;20037;-51
2021/01/07 00:08:33;;;;;;;1.10;0.60;;;15.20;57.90;;;;;;4975541;28;20378;-53
2021/01/07 00:10:58;;;;;;;1.05;0.70;;;15.20;57.90;;;;;;4975662;28;20123;-51
2021/01/07 00:13:33;;;;;;;2.65;0.80;;;15.20;57.90;;;;;;4975816;28;20054;-54
2021/01/07 00:15:59;;;;;;;2.47;0.68;;;15.20;58.00;;;;;;4975567;28;20461;-54
2021/01/07 00:18:25;;;;;;;2.38;1.20;;;15.10;57.90;;;;;;4975419;28;20054;-54
2021/01/07 00:20:51;;;;;;;1.80;0.80;;;15.10;57.90;;;;;;4958038;28;20019;-49
2021/01/07 00:23:16;;;;;;;0.98;0.57;;;15.20;58.00;;;;;;4957971;28;20046;-52
2021/01/07 00:25:47;;;;;;;1.00;0.70;;;15.10;58.00;;;;;;4957918;28;20773;-53
2021/01/07 00:28:14;;;;;;;1.15;0.60;;;15.00;57.90;;;;;;4975091;28;20057;-53
2021/01/07 00:30:40;;;;;;;1.65;0.60;;;15.00;58.00;;;;;;4975138;28;20485;-50
2021/01/07 00:33:05;;;;;;;1.48;0.60;;;15.00;57.90;;;;;;4975093;28;20057;-51
2021/01/07 00:35:31;;;;;;;0.60;0.60;;;15.10;57.90;;;;;;4974973;28;20481;-53
2021/01/07 00:37:56;;;;;;;0.82;0.70;;;15.00;57.90;;;;;;4974925;28;20030;-52
2021/01/07 00:40:28;;;;;;;1.42;0.80;;;15.00;58.00;;;;;;4975359;28;20671;-50
2021/01/07 00:42:54;;;;;;;1.13;0.45;;;15.00;58.00;;;;;;4974911;28;20109;-52
2021/01/07 00:45:20;;;;;;;1.67;0.70;;;15.00;58.00;;;;;;4974980;28;20027;-53
2021/01/07 00:47:46;;;;;;;1.50;0.68;;;14.90;58.00;;;;;;4974921;28;20029;-54
2021/01/07 00:50:12;;;;;;;1.52;0.73;;;14.90;58.00;;;;;;4974732;28;20397;-51
2021/01/07 00:52:41;;;;;;;0.88;0.57;;;14.90;57.90;;;;;;4974773;28;20105;-52
2021/01/07 00:55:11;;;;;;;0.73;0.57;;;14.80;57.90;;;;;;4974705;28;20034;-53
2021/01/07 00:57:37;;;;;;;0.90;0.52;;;14.90;58.00;;;;;;4974664;28;20039;-52
2021/01/07 01:00:08;;;;;;;1.33;0.82;;;14.80;57.90;;;;;;4974707;28;20043;-49
2021/01/07 01:02:33;;;;;;;2.15;0.80;;;14.80;57.90;;;;;;4974652;28;20031;-50
2021/01/07 01:04:59;;;;;;;1.30;0.73;;;14.80;58.00;;;;;;4957197;28;20087;-50
2021/01/07 01:07:25;;;;;;;0.57;0.45;;;14.80;58.00;;;;;;4974565;28;20030;-49
2021/01/07 01:09:51;;;;;;;0.85;0.70;;;14.80;58.00;;;;;;4974446;28;20039;-51
2021/01/07 01:12:17;;;;;;;0.60;0.60;;;14.80;58.00;;;;;;4974487;28;20469;-51
2021/01/07 01:14:42;;;;;;;1.83;0.90;;;14.70;57.90;;;;;;4974526;28;20821;-54
2021/01/07 01:17:08;;;;;;;0.50;0.40;;;14.70;57.90;;;;;;4974522;28;20475;-53
2021/01/07 01:19:33;;;;;;;0.80;0.52;;;14.70;57.90;;;;;;4956990;28;20042;-49
2021/01/07 01:21:59;;;;;;;1.77;0.90;;;14.70;57.90;;;;;;4974422;28;20035;-54
2021/01/07 01:24:25;;;;;;;0.95;0.70;;;14.70;57.90;;;;;;4974305;28;20054;-49
2021/01/07 01:26:57;;;;;;;0.93;0.60;;;14.70;58.00;;;;;;4974195;28;20048;-51
2021/01/07 01:29:24;;;;;;;0.95;0.60;;;14.70;57.90;;;;;;4974064;28;20492;-53
2021/01/07 01:31:50;;;;;;;0.77;0.50;;;14.70;57.90;;;;;;4974181;28;20429;-50
2021/01/07 01:34:17;;;;;;;1.00;0.70;;;14.70;57.90;;;;;;4974040;28;20476;-51
2021/01/07 01:36:42;;;;;;;1.08;0.40;;;14.60;57.90;;;;;;4973927;28;20065;-54
2021/01/07 01:39:08;;;;;;;0.93;0.70;;;14.30;57.70;;;;;;4973886;28;20062;-51
2021/01/07 01:41:51;;;;;;;0.98;0.52;;;14.60;57.90;;;;;;4974556;28;20567;-50
2021/01/07 01:44:17;;;;;;;1.02;0.63;;;14.60;57.90;;;;;;4973809;28;20093;-50
2021/01/07 01:46:43;;;;;;;0.60;0.60;;;14.70;57.90;;;;;;4973717;28;20023;-54
2021/01/07 01:49:12;;;;;;;1.70;0.80;;;14.50;57.80;;;;;;4973597;28;20038;-53
2021/01/07 01:51:38;;;;;;;0.40;0.40;;;14.50;57.80;;;;;;4973610;28;20026;-52
2021/01/07 01:54:05;;;;;;;0.95;0.47;;;14.50;57.90;;;;;;4973653;28;20035;-50
2021/01/07 01:56:31;;;;;;;1.75;0.65;;;14.50;57.90;;;;;;4973607;28;20027;-51
2021/01/07 01:58:58;;;;;;;1.02;0.60;;;14.50;57.90;;;;;;4973580;28;20027;-53
2021/01/07 02:01:23;;;;;;;0.50;0.50;;;14.50;57.90;;;;;;4973588;28;20511;-50
2021/01/07 02:03:49;;;;;;;0.88;0.82;;;14.50;57.90;;;;;;4973493;28;20066;-50
2021/01/07 02:06:17;;;;;;;1.05;0.60;;;14.50;57.90;;;;;;4956183;28;20023;-51
2021/01/07 02:08:47;;;;;;;0.95;0.52;;;14.50;57.90;;;;;;4973309;28;20080;-54
2021/01/07 02:11:14;;;;;;;0.70;0.50;;;14.50;57.90;;;;;;4973069;28;20520;-54
2021/01/07 02:13:47;;;;;;;1.13;0.70;;;14.50;57.90;;;;;;4973265;28;20031;-52
2021/01/07 02:16:22;;;;;;;0.40;0.30;;;14.40;57.90;;;;;;4973183;28;20034;-51
2021/01/07 02:18:49;;;;;;;1.27;0.50;;;14.40;57.90;;;;;;4973315;28;20535;-50
2021/01/07 02:21:14;;;;;;;0.40;0.40;;;14.40;57.90;;;;;;4973257;28;20031;-53
2021/01/07 02:23:50;;;;;;;1.05;0.60;;;14.40;58.00;;;;;;4973208;28;20042;-53
2021/01/07 02:26:20;;;;;;;0.68;0.40;;;14.40;58.00;;;;;;4973469;28;20409;-54
2021/01/07 02:28:47;;;;;;;1.52;0.68;;;14.40;58.00;;;;;;4973341;28;20027;-53
2021/01/07 02:31:13;;;;;;;1.15;0.57;;;14.40;58.00;;;;;;4973098;28;20521;-54
2021/01/07 02:33:39;;;;;;;0.65;0.45;;;14.30;57.90;;;;;;4973027;28;20109;-50
2021/01/07 02:36:05;;;;;;;0.85;0.55;;;14.40;58.00;;;;;;4972997;28;20482;-51
2021/01/07 02:38:31;;;;;;;1.83;0.47;;;14.30;57.90;;;;;;4973222;28;20078;-53
2021/01/07 02:40:57;;;;;;;0.50;0.50;;;14.30;57.90;;;;;;4973696;28;20051;-51
2021/01/07 02:43:22;;;;;;;1.08;0.60;;;14.30;57.90;;;;;;4973043;28;20034;-50
2021/01/07 02:45:48;;;;;;;0.52;0.50;;;14.30;57.90;;;;;;4973011;28;20102;-53
2021/01/07 02:48:13;;;;;;;0.43;0.40;;;14.30;57.90;;;;;;4955503;28;20086;-54
2021/01/07 02:50:39;;;;;;;1.27;0.55;;;14.20;57.90;;;;;;4972895;28;20034;-51
2021/01/07 02:53:05;;;;;;;0.65;0.50;;;14.30;57.90;;;;;;4972806;28;20026;-52
2021/01/07 02:55:31;;;;;;;0.68;0.50;;;14.20;57.90;;;;;;4972856;28;20019;-54
2021/01/07 02:57:57;;;;;;;0.85;0.50;;;14.20;57.90;;;;;;4972834;28;20042;-52
2021/01/07 03:00:22;;;;;;;0.77;0.40;;;14.20;57.90;;;;;;4972779;28;20027;-51
2021/01/07 03:02:48;;;;;;;0.40;0.40;;;14.20;57.90;;;;;;4972771;28;20027;-53
2021/01/07 03:05:14;;;;;;;0.77;0.40;;;14.20;57.90;;;;;;4955481;28;20019;-52
2021/01/07 03:07:39;;;;;;;1.10;0.40;;;14.20;57.90;;;;;;4972783;28;20499;-50
2021/01/07 03:10:09;;;;;;;0.45;0.45;;;14.20;57.90;;;;;;4972747;28;20031;-53
2021/01/07 03:12:35;;;;;;;0.95;0.50;;;14.20;58.00;;;;;;4973021;28;20015;-53
2021/01/07 03:15:01;;;;;;;0.40;0.40;;;14.20;58.00;;;;;;4972698;28;20026;-49
2021/01/07 03:17:26;;;;;;;0.50;0.50;;;14.20;58.00;;;;;;4972717;28;20480;-52
2021/01/07 03:19:52;;;;;;;1.15;0.57;;;14.20;58.00;;;;;;4972720;28;20062;-50
2021/01/07 03:22:17;;;;;;;0.70;0.50;;;14.10;57.90;;;;;;4972986;28;20101;-53
2021/01/07 03:24:43;;;;;;;1.75;0.60;;;14.10;57.90;;;;;;4990570;28;20094;-52
2021/01/07 03:27:09;;;;;;;0.85;0.47;;;14.10;58.00;;;;;;4976397;28;20109;-54
2021/01/07 03:29:34;;;;;;;0.75;0.45;;;14.10;58.00;;;;;;4976323;28;20038;-52
2021/01/07 03:32:00;;;;;;;0.70;0.50;;;14.10;58.00;;;;;;4976370;28;20162;-50
2021/01/07 03:34:26;;;;;;;0.50;0.40;;;14.10;58.00;;;;;;4976268;28;20019;-51
2021/01/07 03:36:51;;;;;;;0.65;0.38;;;14.10;58.00;;;;;;4976262;28;20439;-50
2021/01/07 03:39:17;;;;;;;0.40;0.32;;;14.00;58.00;;;;;;4976219;28;20034;-53
2021/01/07 03:41:43;;;;;;;0.63;0.40;;;14.00;58.00;;;;;;4976926;28;20126;-50
2021/01/07 03:44:09;;;;;;;0.63;0.52;;;14.00;58.00;;;;;;4976125;28;20034;-52
2021/01/07 03:46:35;;;;;;;0.63;0.40;;;14.00;58.00;;;;;;4976030;28;20022;-51
2021/01/07 03:49:01;;;;;;;0.82;0.40;;;14.00;58.00;;;;;;4975945;28;20039;-52
2021/01/07 03:51:26;;;;;;;1.00;0.60;;;14.00;58.00;;;;;;4975927;28;20030;-53
2021/01/07 03:53:52;;;;;;;0.93;0.50;;;14.00;58.00;;;;;;4975905;28;20508;-52
2021/01/07 03:56:17;;;;;;;0.30;0.30;;;14.00;58.00;;;;;;4975747;28;20377;-51
2021/01/07 03:58:43;;;;;;;0.40;0.40;;;14.00;58.10;;;;;;4975755;28;20034;-53
2021/01/07 04:01:09;;;;;;;0.40;0.40;;;13.90;58.00;;;;;;4975744;28;20082;-50
2021/01/07 04:03:34;;;;;;;0.88;0.50;;;14.00;58.10;;;;;;4975927;28;20031;-51
2021/01/07 04:06:00;;;;;;;0.57;0.35;;;13.90;58.00;;;;;;4975685;28;20038;-51
2021/01/07 04:08:25;;;;;;;0.30;0.30;;;14.00;58.10;;;;;;4975456;28;20077;-53
2021/01/07 04:10:51;;;;;;;0.40;0.40;;;13.90;58.10;;;;;;4975531;28;20111;-52
2021/01/07 04:13:17;;;;;;;0.60;0.40;;;13.90;58.10;;;;;;4975526;28;20077;-52
2021/01/07 04:15:42;;;;;;;0.40;0.35;;;13.90;58.10;;;;;;4975442;28;20078;-50
2021/01/07 04:18:08;;;;;;;0.70;0.43;;;13.90;58.10;;;;;;4975484;28;20490;-53
2021/01/07 04:20:33;;;;;;;1.08;0.50;;;13.90;58.20;;;;;;4975368;28;20034;-53
2021/01/07 04:22:59;;;;;;;0.63;0.40;;;13.80;58.10;;;;;;4975407;28;20027;-49
2021/01/07 04:25:24;;;;;;;0.90;0.40;;;13.80;58.10;;;;;;4975309;28;20054;-51
2021/01/07 04:27:50;;;;;;;0.85;0.47;;;13.90;58.10;;;;;;4975169;28;20037;-51
2021/01/07 04:30:16;;;;;;;0.40;0.40;;;13.80;58.10;;;;;;4975132;28;20039;-54
2021/01/07 04:32:42;;;;;;;0.65;0.20;;;13.90;58.20;;;;;;4975144;28;20050;-53
2021/01/07 04:35:07;;;;;;;0.47;0.40;;;13.80;58.10;;;;;;4974671;28;20481;-51
2021/01/07 04:37:33;;;;;;;0.45;0.40;;;13.80;58.10;;;;;;4974961;28;20103;-52
2021/01/07 04:39:59;;;;;;;0.50;0.30;;;13.90;58.50;;;;;;4976029;28;20042;-53
2021/01/07 04:42:25;;;;;;;0.47;0.30;;;13.90;58.50;;;;;;4957579;28;20479;-52
2021/01/07 04:44:50;;;;;;;0.75;0.30;;;14.00;58.50;;;;;;4957504;28;20110;-53
2021/01/07 04:47:17;;;;;;;0.28;0.25;;;14.00;58.50;;;;;;4974974;28;20019;-53
2021/01/07 04:49:43;;;;;;;0.30;0.20;;;14.10;58.50;;;;;;4974602;28;20030;-53
2021/01/07 04:52:08;;;;;;;1.10;0.40;;;14.10;58.50;;;;;;4974803;28;20106;-52
2021/01/07 04:54:34;;;;;;;0.30;0.28;;;14.10;58.50;;;;;;4974720;28;20030;-54
2021/01/07 04:57:01;;;;;;;0.45;0.40;;;14.20;58.50;;;;;;4957257;28;20689;-54
2021/01/07 04:59:26;;;;;;;0.73;0.35;;;14.20;58.50;;;;;;4974734;28;20030;-53
2021/01/07 05:01:53;;;;;;;0.30;0.30;;;14.20;58.40;;;;;;4974633;28;20049;-51
2021/01/07 05:04:19;;;;;;;0.90;0.30;;;14.30;58.50;;;;;;4974679;28;20030;-53
2021/01/07 05:06:46;;;;;;;0.20;0.20;;;14.30;58.40;;;;;;4974554;28;20030;-49
2021/01/07 05:09:11;;;;;;;0.20;0.20;;;14.20;58.30;;;;;;4974540;28;20060;-52
2021/01/07 05:11:37;;;;;;;1.05;0.30;;;14.30;58.40;;;;;;4974617;28;20512;-51
2021/01/07 05:14:05;;;;;;;0.77;0.40;;;14.30;58.30;;;;;;4974563;28;20030;-51
2021/01/07 05:16:31;;;;;;;0.40;0.30;;;14.30;58.30;;;;;;4974459;28;20035;-53
2021/01/07 05:18:57;;;;;;;0.50;0.22;;;14.30;58.30;;;;;;4974336;28;20023;-50
2021/01/07 05:21:24;;;;;;;0.60;0.30;;;14.30;58.20;;;;;;4974318;28;20030;-50
2021/01/07 05:23:53;;;;;;;0.38;0.30;;;14.30;58.20;;;;;;4974182;28;20035;-52
2021/01/07 05:26:20;;;;;;;1.02;0.30;;;14.30;58.20;;;;;;4974264;28;20483;-51
2021/01/07 05:28:51;;;;;;;0.43;0.25;;;14.30;58.20;;;;;;4974119;28;20019;-53
2021/01/07 05:31:24;;;;;;;0.45;0.20;;;14.20;58.30;;;;;;4974102;28;20113;-52
2021/01/07 05:33:51;;;;;;;0.35;0.30;;;14.20;58.40;;;;;;4974007;28;20031;-53
2021/01/07 05:36:24;;;;;;;0.65;0.25;;;14.20;58.40;;;;;;4973951;28;20157;-53
2021/01/07 05:38:52;;;;;;;0.50;0.30;;;14.10;58.40;;;;;;4974034;28;20058;-51
2021/01/07 05:41:18;;;;;;;0.30;0.30;;;14.10;58.40;;;;;;4974650;28;20541;-53
2021/01/07 05:43:45;;;;;;;0.38;0.20;;;14.10;58.40;;;;;;4956378;28;20022;-52
2021/01/07 05:46:12;;;;;;;0.20;0.20;;;14.10;59.10;;;;;;4973036;28;20026;-51
2021/01/07 05:48:37;;;;;;;0.20;0.20;;;14.00;58.50;;;;;;4973708;28;20037;-53
2021/01/07 05:51:04;;;;;;;0.90;0.30;;;14.00;58.50;;;;;;4973619;28;20022;-49
2021/01/07 05:53:31;;;;;;;0.30;0.20;;;14.00;58.60;;;;;;4973665;28;20102;-52
2021/01/07 05:55:57;;;;;;;0.30;0.30;;;14.00;59.30;;;;;;4973598;28;20038;-53
2021/01/07 05:58:24;;;;;;;0.35;0.20;;;13.90;58.50;;;;;;4973584;28;20022;-52
2021/01/07 06:00:53;;;;;;;0.30;0.20;;;13.90;58.60;;;;;;4973542;28;20043;-51
2021/01/07 06:03:19;;;;;;;0.50;0.25;;;13.90;58.60;;;;;;4956242;28;20392;-51
2021/01/07 06:05:46;;;;;;;0.95;0.30;;;13.90;58.80;;;;;;4973417;28;20034;-53
2021/01/07 06:08:16;;;;;;;0.20;0.20;;;14.00;59.20;;;;;;4955985;28;20552;-53
2021/01/07 06:10:46;;;;;;;0.30;0.30;;;14.00;59.20;;;;;;4973485;28;20039;-53
2021/01/07 06:13:13;;;;;;;0.22;0.20;;;14.10;59.10;;;;;;4973324;28;20023;-50
2021/01/07 06:15:39;;;;;;;0.30;0.30;;;14.20;58.90;;;;;;4956257;28;20034;-53
2021/01/07 06:18:06;;;;;;;0.15;0.15;;;14.40;58.80;;;;;;4973417;28;20057;-51
2021/01/07 06:20:33;;;;;;;0.10;0.10;;;14.50;58.70;;;;;;4973161;28;20027;-53
2021/01/07 06:22:59;;;;;;;0.20;0.20;;;14.60;58.70;;;;;;4973231;28;20022;-52
2021/01/07 06:25:24;;;;;;;0.25;0.22;;;14.70;58.60;;;;;;4973209;28;20110;-50
2021/01/07 06:27:51;;;;;;;0.75;0.20;;;14.70;58.50;;;;;;4973154;28;20440;-50
2021/01/07 06:30:17;;;;;;;0.45;0.20;;;14.80;58.40;;;;;;4973102;28;20082;-51
2021/01/07 06:33:00;;;;;;;0.20;0.20;;;14.80;57.70;;;;;;4973163;28;20031;-53
2021/01/07 06:35:39;;;;;;;0.17;0.17;;;14.80;58.30;;;;;;4973116;28;20489;-54
2021/01/07 06:38:04;;;;;;;0.28;0.20;;;14.90;58.20;;;;;;4972997;28;20046;-52
2021/01/07 06:40:30;;;;;;;0.20;0.20;;;15.10;58.20;;;;;;4973798;28;20071;-49
2021/01/07 06:42:56;;;;;;;0.40;0.20;;;15.00;58.00;;;;;;4973014;28;20023;-53
2021/01/07 06:45:24;;;;;;;0.20;0.20;;;15.10;58.00;;;;;;4972910;28;20026;-53
2021/01/07 06:47:55;;;;;;;0.93;0.20;;;15.10;57.80;;;;;;4972975;28;20046;-50
2021/01/07 06:50:21;;;;;;;0.30;0.20;;;15.10;57.70;;;;;;4972778;28;20061;-49
2021/01/07 06:52:49;;;;;;;0.43;0.10;;;15.20;57.60;;;;;;4972901;28;20027;-50
2021/01/07 06:55:16;;;;;;;0.50;0.10;;;15.20;57.50;;;;;;4955425;28;20022;-50
2021/01/07 06:57:44;;;;;;;1.02;0.20;;;15.30;57.50;;;;;;4974405;28;20019;-51
2021/01/07 07:00:11;;;;;;;0.77;0.20;;;15.30;57.40;;;;;;4976886;28;20030;-51
2021/01/07 07:02:37;;;;;;;1.02;0.20;;;15.40;57.60;;;;;;4976813;28;20548;-49
2021/01/07 07:05:07;;;;;;;0.68;0.17;;;15.40;57.60;;;;;;4976376;28;20030;-50
2021/01/07 07:07:38;;;;;;;1.02;0.30;;;15.50;57.50;;;;;;4976041;28;20029;-49
2021/01/07 07:10:19;;;;;;;0.30;0.20;;;15.50;57.30;;;;;;4974422;28;20035;-49
2021/01/07 07:12:52;;;;;;;0.30;0.20;;;15.50;57.20;;;;;;4974839;28;20035;-53
2021/01/07 07:15:24;;;;;;;0.70;0.47;;;15.60;57.20;;;;;;4976325;28;20022;-50
2021/01/07 07:17:53;;;;;;;0.50;0.20;;;15.60;57.20;;;;;;4960189;28;20515;-52
2021/01/07 07:20:20;;;;;;;0.43;0.20;;;15.70;57.10;;;;;;4976569;28;20026;-51
2021/01/07 07:22:46;;;;;;;0.25;0.20;;;15.60;57.00;;;;;;4976565;28;20521;-49
2021/01/07 07:25:15;;;;;;;0.93;0.10;;;15.70;57.00;;;;;;4976305;28;20026;-50
2021/01/07 07:27:45;;;;;;;1.10;0.20;;;15.70;57.00;;;;;;4976467;28;20061;-50
2021/01/07 07:30:13;;;;;;;0.20;0.20;;;15.70;56.90;;;;;;4975818;28;20049;-50
2021/01/07 07:32:44;;;;;;;0.93;0.20;;;15.70;56.90;;;;;;4974544;28;20055;-51
2021/01/07 07:35:23;;;;;;;1.38;0.45;;;15.70;56.80;;;;;;4974290;28;20085;-51
2021/01/07 07:37:49;;;;;;;0.10;0.10;;;15.80;56.80;;;;;;4974694;28;20027;-52
2021/01/07 07:40:36;;;;;;;0.82;0.20;;;15.80;56.80;;;;;;4976789;28;20114;-50
2021/01/07 07:43:04;;;;;;;0.40;0.20;;;15.80;56.70;;;;;;4976098;28;20029;-52
2021/01/07 07:45:31;;;;;;;0.73;0.20;;;15.80;56.70;;;;;;4975873;28;20027;-54
2021/01/07 07:47:58;;;;;;;0.55;0.35;;;15.90;56.60;;;;;;4975270;28;20023;-51
2021/01/07 07:50:28;;;;;;;0.10;0.10;;;15.90;56.50;;;;;;4978922;28;20039;-54
2021/01/07 07:53:10;;;;;;;0.20;0.20;;;15.90;56.50;;;;;;4994756;28;20023;-52
2021/01/07 07:55:37;;;;;;;4.10;0.35;;;15.90;56.50;;;;;;4995326;28;20034;-53
2021/01/07 07:58:13;;;;;;;4.28;0.73;;;15.90;56.50;;;;;;4995296;28;20065;-54
2021/01/07 08:00:39;;;;;;;0.20;0.10;;;15.90;56.50;;;;;;4994954;28;20030;-50
2021/01/07 08:03:06;;;;;;;0.70;0.20;;;16.00;56.50;;;;;;4975635;28;20011;-53
2021/01/07 08:05:34;;;;;;;0.63;0.20;;;16.00;56.40;;;;;;4974119;28;20489;-54
2021/01/07 08:08:06;;;;;;;0.32;0.28;;;16.00;56.30;;;;;;4975448;28;20026;-52
2021/01/07 08:10:31;;;;;;;0.35;0.10;;;16.00;56.30;;;;;;4974613;28;20042;-53
2021/01/07 08:12:59;;;;;;;0.38;0.20;;;15.90;56.30;;;;;;4975529;28;20122;-53
2021/01/07 08:15:32;;;;;;;1.42;0.10;;;15.90;56.20;;;;;;4975532;28;20030;-54
2021/01/07 08:18:20;;;;;;;0.95;0.17;;;15.90;56.30;;;;;;4975654;28;20070;-53
2021/01/07 08:20:47;;;;;;;1.13;0.25;;;15.90;56.20;;;;;;4975467;28;20433;-50
2021/01/07 08:23:15;;;;;;;0.45;0.30;;;15.90;56.20;;;;;;4975379;28;20548;-52
2021/01/07 08:25:44;;;;;;;0.20;0.20;;;15.90;56.30;;;;;;4975366;28;20424;-50
2021/01/07 08:28:40;;;;;;;0.40;0.10;;;15.90;56.10;;;;;;4975230;28;20037;-49
2021/01/07 08:31:11;;;;;;;0.80;0.20;;;15.80;56.00;;;;;;4975205;28;20118;-50
2021/01/07 08:33:36;;;;;;;0.50;0.15;;;15.80;56.00;;;;;;4975635;28;20019;-48
2021/01/07 08:36:03;;;;;;;0.50;0.22;;;15.80;56.10;;;;;;4954660;29;20094;-48
2021/01/07 08:38:33;;;;;;;0.45;0.30;;;15.80;56.00;;;;;;4955583;29;20074;-49
2021/01/07 08:41:13;;;;;;;0.63;0.20;;;15.70;55.90;;;;;;4956152;28;20078;-53
2021/01/07 08:43:40;;;;;;;0.10;0.10;;;15.70;56.00;;;;;;4955668;29;20034;-50
2021/01/07 08:46:21;;;;;;;0.50;0.30;;;15.70;56.00;;;;;;4955712;29;20023;-52
2021/01/07 08:49:03;;;;;;;0.22;0.20;;;15.70;55.80;;;;;;4955833;29;20036;-49
2021/01/07 08:51:38;;;;;;;0.43;0.25;;;15.70;55.80;;;;;;4955745;29;20030;-48
2021/01/07 08:54:15;;;;;;;1.73;0.30;;;15.70;55.70;;;;;;4939176;29;20027;-51
2021/01/07 08:56:43;;;;;;;0.43;0.20;;;15.70;55.60;;;;;;4955619;29;20038;-49
2021/01/07 08:59:25;;;;;;;1.63;0.50;;;15.70;55.70;;;;;;4963914;28;20154;-50
2021/01/07 09:02:06;;;;;;;0.22;0.13;;;15.60;55.60;;;;;;4994427;28;20034;-50
2021/01/07 09:04:43;;;;;;;0.85;0.25;;;15.70;55.70;;;;;;4994153;28;20053;-49
2021/01/07 09:07:09;;;;;;;0.40;0.17;;;15.70;55.50;;;;;;4994483;28;20170;-50
2021/01/07 09:09:46;;;;;;;0.75;0.20;;;15.70;55.60;;;;;;4993139;28;20499;-49
2021/01/07 09:12:14;;;;;;;0.28;0.28;;;15.70;55.50;;;;;;4993467;28;20080;-50
2021/01/07 09:14:46;;;;;;;0.35;0.30;;;15.70;55.60;;;;;;4993384;28;20213;-49
2021/01/07 09:17:13;;;;;;;0.80;0.30;;;15.70;55.50;;;;;;4975770;28;20480;-50
2021/01/07 09:19:38;;;;;;;0.30;0.10;;;15.70;55.50;;;;;;4993295;28;20030;-48
2021/01/07 09:22:04;;;;;;;0.68;0.40;;;15.70;55.40;;;;;;4992173;28;20165;-51
2021/01/07 09:24:37;;;;;;;0.40;0.20;;;15.70;55.40;;;;;;4993534;28;20031;-49
2021/01/07 09:27:12;;;;;;;0.82;0.17;;;15.70;55.40;;;;;;4992374;28;20435;-48
2021/01/07 09:29:38;;;;;;;0.20;0.15;;;15.70;55.40;;;;;;4993149;28;20062;-53
2021/01/07 09:32:05;;;;;;;1.20;0.50;;;15.70;55.30;;;;;;4993448;28;20029;-50
2021/01/07 09:34:31;;;;;;;0.52;0.30;;;15.70;55.30;;;;;;4993483;28;20495;-50
2021/01/07 09:37:04;;;;;;;0.20;0.20;;;15.70;55.90;;;;;;4993655;28;20023;-49
2021/01/07 09:39:30;;;;;;;0.73;0.38;;;15.70;55.30;;;;;;4993553;28;20186;-50
2021/01/07 09:41:56;;;;;;;0.95;0.20;;;15.70;55.20;;;;;;4993428;28;20534;-48
2021/01/07 09:44:21;;;;;;;0.75;0.30;;;15.70;55.10;;;;;;4993044;28;20473;-49
2021/01/07 09:46:51;;;;;;;0.68;0.30;;;15.70;55.10;;;;;;4975584;28;20022;-49
2021/01/07 09:49:17;;;;;;;0.52;0.30;;;15.70;55.10;;;;;;4993217;28;20037;-51
2021/01/07 09:51:42;;;;;;;0.68;0.20;;;15.70;55.00;;;;;;4992868;28;20015;-50
2021/01/07 09:54:08;;;;;;;1.02;0.40;;;15.80;55.00;;;;;;4993059;28;20480;-50
2021/01/07 09:56:34;;;;;;;0.95;0.20;;;15.80;55.00;;;;;;4992862;28;20358;-53
2021/01/07 09:58:59;;;;;;;0.95;0.40;;;15.80;55.00;;;;;;4993116;28;20030;-50
2021/01/07 10:01:25;;;;;;;0.70;0.20;;;15.80;55.00;;;;;;4992886;28;20044;-49
2021/01/07 10:03:50;;;;;;;0.55;0.30;;;15.80;54.90;;;;;;4991398;28;20030;-52
2021/01/07 10:06:16;;;;;;;0.90;0.20;;;15.80;54.80;;;;;;4992287;28;20026;-50
2021/01/07 10:08:42;;;;;;;1.33;0.30;;;15.80;54.80;;;;;;4992966;28;20117;-49
2021/01/07 10:11:08;;;;;;;0.93;0.30;;;15.80;54.80;;;;;;4992222;28;20030;-50
2021/01/07 10:13:34;;;;;;;0.40;0.30;;;15.80;54.70;;;;;;4992723;28;20071;-50
2021/01/07 10:16:00;;;;;;;0.70;0.43;;;15.80;54.70;;;;;;4992070;28;20038;-51
2021/01/07 10:18:26;;;;;;;1.25;0.30;;;15.90;54.70;;;;;;4992808;28;20453;-52
2021/01/07 10:20:58;;;;;;;1.77;0.40;;;15.80;54.60;;;;;;4992666;28;20535;-49
2021/01/07 10:23:24;;;;;;;0.98;0.40;;;15.90;54.70;;;;;;4992724;28;20066;-49
2021/01/07 10:25:50;;;;;;;0.45;0.32;;;15.90;54.70;;;;;;4992625;28;20038;-52
2021/01/07 10:28:18;;;;;;;2.28;0.30;;;15.90;54.70;;;;;;4992512;28;20130;-49
2021/01/07 10:30:45;;;;;;;0.75;0.45;;;15.90;54.70;;;;;;4992870;28;20026;-48
2021/01/07 10:33:10;;;;;;;1.20;0.40;;;15.90;54.70;;;;;;4992122;28;20026;-49
2021/01/07 10:35:39;;;;;;;0.80;0.20;;;16.00;54.70;;;;;;4992606;28;20029;-50
2021/01/07 10:38:07;;;;;;;1.00;0.40;;;16.00;54.60;;;;;;4992501;28;20480;-52
2021/01/07 10:40:39;;;;;;;0.60;0.30;;;15.90;54.40;;;;;;4993171;28;20033;-51
2021/01/07 10:43:05;;;;;;;0.65;0.30;;;15.90;54.40;;;;;;4992660;28;20034;-51
2021/01/07 10:45:33;;;;;;;2.15;0.40;;;15.90;54.40;;;;;;4992556;28;20025;-49
2021/01/07 10:47:59;;;;;;;1.33;0.47;;;15.90;54.40;;;;;;4992410;28;20391;-50
2021/01/07 10:50:28;;;;;;;0.40;0.20;;;15.90;54.40;;;;;;4992321;28;20447;-49
2021/01/07 10:53:12;;;;;;;0.95;0.50;;;15.90;54.40;;;;;;4992401;28;20033;-50
2021/01/07 10:55:52;;;;;;;0.60;0.40;;;15.80;54.20;;;;;;4992312;28;20034;-52
2021/01/07 10:58:36;;;;;;;0.50;0.40;;;15.80;54.30;;;;;;4992310;28;20072;-50
2021/01/07 11:01:08;;;;;;;1.05;0.40;;;15.80;54.20;;;;;;4992231;28;20054;-50
2021/01/07 11:03:36;;;;;;;1.88;0.45;;;15.80;54.30;;;;;;4992494;28;20491;-50
2021/01/07 11:06:03;;;;;;;0.73;0.30;;;15.80;54.20;;;;;;4992225;28;20035;-52
2021/01/07 11:08:33;;;;;;;1.58;0.50;;;15.80;54.20;;;;;;4992059;28;20049;-52
2021/01/07 11:11:02;;;;;;;1.45;0.38;;;15.80;54.30;;;;;;4992115;28;20137;-48
2021/01/07 11:13:56;;;;;;;1.88;0.60;;;15.80;54.30;;;;;;4974625;28;20480;-52
2021/01/07 11:16:28;;;;;;;0.85;0.38;;;15.70;54.20;;;;;;4974722;28;20035;-51
2021/01/07 11:18:57;;;;;;;1.25;0.38;;;15.80;54.40;;;;;;4991521;28;20038;-49
2021/01/07 11:21:29;;;;;;;0.68;0.30;;;15.70;54.30;;;;;;4992035;28;20467;-51
2021/01/07 11:23:56;;;;;;;0.85;0.20;;;15.80;54.20;;;;;;4992098;28;20045;-53
2021/01/07 11:26:22;;;;;;;1.52;0.40;;;15.70;54.20;;;;;;4992068;28;20023;-51
2021/01/07 11:28:51;;;;;;;0.80;0.30;;;15.70;54.30;;;;;;4991901;28;20030;-49
2021/01/07 11:31:18;;;;;;;1.27;0.38;;;15.70;54.20;;;;;;4991996;28;20544;-50
2021/01/07 11:33:46;;;;;;;0.73;0.35;;;15.70;54.10;;;;;;4991956;28;20022;-49
2021/01/07 11:36:18;;;;;;;1.45;0.40;;;15.70;54.20;;;;;;4991994;28;20022;-49
2021/01/07 11:38:52;;;;;;;1.25;0.40;;;15.70;54.30;;;;;;4991959;28;20118;-50
2021/01/07 11:41:50;;;;;;;0.98;0.22;;;15.70;54.20;;;;;;4990888;28;20306;-50
2021/01/07 11:44:41;;;;;;;1.55;0.43;;;15.70;54.00;;;;;;4987163;28;20086;-49
2021/01/07 11:47:10;;;;;;;1.73;0.77;;;15.70;54.00;;;;;;4995502;28;20061;-50
2021/01/07 11:49:41;;;;;;;1.55;0.30;;;15.70;54.10;;;;;;4977841;28;20058;-50
2021/01/07 11:52:08;;;;;;;2.17;0.60;;;15.70;54.00;;;;;;4995399;28;20056;-50
2021/01/07 11:54:38;;;;;;;1.00;0.30;;;15.70;53.90;;;;;;4995561;28;20101;-49
2021/01/07 11:57:08;;;;;;;0.98;0.40;;;15.70;54.00;;;;;;4995297;28;20046;-50
2021/01/07 11:59:38;;;;;;;0.60;0.40;;;15.90;54.20;;;;;;4995330;28;20022;-50
2021/01/07 12:02:08;;;;;;;0.57;0.20;;;15.70;53.90;;;;;;4995378;28;20420;-50
2021/01/07 12:04:41;;;;;;;1.10;0.40;;;15.70;53.90;;;;;;4995327;28;20049;-50
2021/01/07 12:07:23;;;;;;;1.40;0.60;;;15.70;54.00;;;;;;4995017;28;20489;-50
2021/01/07 12:09:48;;;;;;;1.10;0.40;;;15.70;54.00;;;;;;4995017;28;20034;-51
2021/01/07 12:12:15;;;;;;;0.77;0.47;;;15.70;53.90;;;;;;4995038;28;20465;-50
2021/01/07 12:14:56;;;;;;;1.08;0.47;;;15.70;53.80;;;;;;4994944;28;20033;-50
2021/01/07 12:17:21;;;;;;;0.60;0.35;;;15.70;53.90;;;;;;4994928;28;20034;-49
2021/01/07 12:19:49;;;;;;;0.77;0.50;;;15.70;53.90;;;;;;4992874;28;20081;-50
2021/01/07 12:22:16;;;;;;;0.82;0.40;;;15.70;53.70;;;;;;4993672;28;20014;-51
2021/01/07 12:24:43;;;;;;;1.10;0.40;;;15.70;53.70;;;;;;4994513;28;20026;-50
2021/01/07 12:27:10;;;;;;;0.57;0.35;;;15.70;53.70;;;;;;4994858;28;20106;-49
2021/01/07 12:29:41;;;;;;;1.98;0.65;;;15.70;53.90;;;;;;4994924;28;20034;-49
2021/01/07 12:32:30;;;;;;;0.90;0.50;;;15.70;53.70;;;;;;4994688;28;20061;-50
2021/01/07 12:35:03;;;;;;;1.27;0.60;;;15.70;53.70;;;;;;4994861;28;20101;-49
2021/01/07 12:37:33;;;;;;;1.00;0.50;;;15.70;53.80;;;;;;4994005;28;20026;-52
2021/01/07 12:40:15;;;;;;;1.60;0.30;;;15.70;53.80;;;;;;4994173;28;20026;-50
2021/01/07 12:42:43;;;;;;;2.25;0.40;;;15.70;53.70;;;;;;4993803;28;20116;-52
2021/01/07 12:45:14;;;;;;;2.67;0.40;;;15.70;53.70;;;;;;4994628;28;20019;-49
2021/01/07 12:47:40;;;;;;;2.78;0.60;;;15.70;53.80;;;;;;4994136;28;20026;-48
2021/01/07 12:50:07;;;;;;;1.20;0.47;;;15.70;53.70;;;;;;4994326;28;20044;-49
2021/01/07 12:52:34;;;;;;;2.42;0.40;;;15.80;53.70;;;;;;4994218;28;20384;-50
2021/01/07 12:55:01;;;;;;;0.75;0.30;;;15.80;53.70;;;;;;4994262;28;20805;-49